Terminal Aerodrome Forecast
Issued by NWS

Home | Current Version | Previous Version | Text Only | Print | Product List | Glossary On
Versions: 1 2 3 4 5 6 7 8 9 10 11 12 13 14 15 16 17 18 19 20 21 22
000
FTUS45 KGJT 281135
TAFDRO
TAF
KDRO 281135Z 2812/2912 05003KT P6SM SCT050 BKN070
     FM281800 27005KT P6SM FEW100 BKN250
     FM290400 02003KT P6SM SCT100 BKN200=

USA.gov is the U.S. government's official web portal to all federal, state and local government web resources and services.